sensor_id;sensor_type;location;lat;lon;timestamp;pressure;altitude;pressure_sealevel;temperature;humidity
66742;BME280;53654;54.152;19.432;2023-03-14T00:01:16;99288.77;;;10.09;81.19
66742;BME280;53654;54.152;19.432;2023-03-14T00:03:45;99295.95;;;10.08;81.32
66742;BME280;53654;54.152;19.432;2023-03-14T00:06:14;99289.48;;;10.08;81.25
66742;BME280;53654;54.152;19.432;2023-03-14T00:08:43;99280.45;;;10.08;81.20
66742;BME280;53654;54.152;19.432;2023-03-14T00:11:14;99275.44;;;10.06;81.44
66742;BME280;53654;54.152;19.432;2023-03-14T00:13:49;99277.66;;;10.07;81.39
66742;BME280;53654;54.152;19.432;2023-03-14T00:16:18;99280.48;;;10.06;81.37
66742;BME280;53654;54.152;19.432;2023-03-14T00:18:47;99274.56;;;10.06;81.45
66742;BME280;53654;54.152;19.432;2023-03-14T00:21:15;99269.98;;;10.08;81.42
66742;BME280;53654;54.152;19.432;2023-03-14T00:23:43;99257.42;;;10.08;81.38
66742;BME280;53654;54.152;19.432;2023-03-14T00:26:17;99258.14;;;10.08;81.42
66742;BME280;53654;54.152;19.432;2023-03-14T00:28:46;99259.84;;;10.09;81.51
66742;BME280;53654;54.152;19.432;2023-03-14T00:31:17;99264.30;;;10.11;81.63
66742;BME280;53654;54.152;19.432;2023-03-14T00:33:45;99261.05;;;10.15;81.60
66742;BME280;53654;54.152;19.432;2023-03-14T00:36:16;99268.95;;;10.19;81.37
66742;BME280;53654;54.152;19.432;2023-03-14T00:38:46;99264.15;;;10.23;81.27
66742;BME280;53654;54.152;19.432;2023-03-14T00:41:17;99260.42;;;10.25;81.01
66742;BME280;53654;54.152;19.432;2023-03-14T00:43:47;99258.27;;;10.27;80.84
66742;BME280;53654;54.152;19.432;2023-03-14T00:46:16;99252.66;;;10.28;80.72
66742;BME280;53654;54.152;19.432;2023-03-14T00:48:45;99259.63;;;10.28;80.66
66742;BME280;53654;54.152;19.432;2023-03-14T00:51:14;99260.73;;;10.32;80.60
66742;BME280;53654;54.152;19.432;2023-03-14T00:53:44;99260.08;;;10.36;80.47
66742;BME280;53654;54.152;19.432;2023-03-14T00:56:13;99259.81;;;10.39;80.36
66742;BME280;53654;54.152;19.432;2023-03-14T00:58:41;99257.16;;;10.41;80.15
66742;BME280;53654;54.152;19.432;2023-03-14T01:01:18;99249.34;;;10.40;80.02
66742;BME280;53654;54.152;19.432;2023-03-14T01:03:46;99255.91;;;10.42;80.02
66742;BME280;53654;54.152;19.432;2023-03-14T01:06:21;99253.61;;;10.43;80.02
66742;BME280;53654;54.152;19.432;2023-03-14T01:08:50;99252.55;;;10.44;80.15
66742;BME280;53654;54.152;19.432;2023-03-14T01:11:24;99248.70;;;10.44;80.15
66742;BME280;53654;54.152;19.432;2023-03-14T01:13:53;99244.50;;;10.45;80.03
66742;BME280;53654;54.152;19.432;2023-03-14T01:16:24;99237.51;;;10.46;80.07
66742;BME280;53654;54.152;19.432;2023-03-14T01:18:53;99238.20;;;10.45;80.14
66742;BME280;53654;54.152;19.432;2023-03-14T01:21:24;99230.66;;;10.47;80.22
66742;BME280;53654;54.152;19.432;2023-03-14T01:23:54;99223.81;;;10.48;80.12
66742;BME280;53654;54.152;19.432;2023-03-14T01:26:25;99220.66;;;10.49;80.06
66742;BME280;53654;54.152;19.432;2023-03-14T01:28:55;99210.04;;;10.48;80.05
66742;BME280;53654;54.152;19.432;2023-03-14T01:31:24;99200.83;;;10.47;80.11
66742;BME280;53654;54.152;19.432;2023-03-14T01:33:52;99194.16;;;10.49;80.02
66742;BME280;53654;54.152;19.432;2023-03-14T01:36:21;99180.92;;;10.48;80.07
66742;BME280;53654;54.152;19.432;2023-03-14T01:38:49;99169.05;;;10.49;79.99
66742;BME280;53654;54.152;19.432;2023-03-14T01:41:23;99171.53;;;10.48;80.01
66742;BME280;53654;54.152;19.432;2023-03-14T01:43:53;99181.38;;;10.45;80.04
66742;BME280;53654;54.152;19.432;2023-03-14T01:52:04;99169.47;;;10.42;80.28
66742;BME280;53654;54.152;19.432;2023-03-14T01:54:38;99176.06;;;10.42;80.39
66742;BME280;53654;54.152;19.432;2023-03-14T02:00:19;99169.15;;;10.46;80.36
66742;BME280;53654;54.152;19.432;2023-03-14T02:02:52;99177.98;;;10.48;80.27
66742;BME280;53654;54.152;19.432;2023-03-14T02:05:25;99171.20;;;10.52;80.23
66742;BME280;53654;54.152;19.432;2023-03-14T02:08:02;99170.20;;;10.56;80.11
66742;BME280;53654;54.152;19.432;2023-03-14T02:10:40;99174.45;;;10.59;79.98
66742;BME280;53654;54.152;19.432;2023-03-14T02:13:10;99170.35;;;10.62;79.88
66742;BME280;53654;54.152;19.432;2023-03-14T02:15:50;99154.80;;;10.63;79.75
66742;BME280;53654;54.152;19.432;2023-03-14T02:22:13;99153.55;;;10.59;79.92
66742;BME280;53654;54.152;19.432;2023-03-14T02:27:34;99145.97;;;10.67;79.66
66742;BME280;53654;54.152;19.432;2023-03-14T02:30:08;99137.52;;;10.69;79.50
66742;BME280;53654;54.152;19.432;2023-03-14T02:32:41;99137.82;;;10.71;79.32
66742;BME280;53654;54.152;19.432;2023-03-14T02:35:21;99137.21;;;10.73;79.20
66742;BME280;53654;54.152;19.432;2023-03-14T02:37:59;99149.55;;;10.74;79.15
66742;BME280;53654;54.152;19.432;2023-03-14T02:40:32;99141.99;;;10.76;79.06
66742;BME280;53654;54.152;19.432;2023-03-14T02:43:01;99148.02;;;10.78;78.92
66742;BME280;53654;54.152;19.432;2023-03-14T02:45:37;99148.14;;;10.79;78.90
66742;BME280;53654;54.152;19.432;2023-03-14T02:48:26;99147.63;;;10.79;78.70
66742;BME280;53654;54.152;19.432;2023-03-14T02:50:59;99138.94;;;10.78;78.74
66742;BME280;53654;54.152;19.432;2023-03-14T02:53:34;99140.11;;;10.80;78.65
66742;BME280;53654;54.152;19.432;2023-03-14T02:56:07;99137.98;;;10.81;78.53
66742;BME280;53654;54.152;19.432;2023-03-14T02:58:37;99144.24;;;10.81;78.47
66742;BME280;53654;54.152;19.432;2023-03-14T03:01:18;99146.36;;;10.81;78.45
66742;BME280;53654;54.152;19.432;2023-03-14T03:03:46;99147.15;;;10.83;78.47
66742;BME280;53654;54.152;19.432;2023-03-14T03:06:15;99147.77;;;10.85;78.27
66742;BME280;53654;54.152;19.432;2023-03-14T03:08:43;99149.60;;;10.88;78.25
66742;BME280;53654;54.152;19.432;2023-03-14T03:11:11;99158.19;;;10.91;78.00
66742;BME280;53654;54.152;19.432;2023-03-14T03:13:39;99168.98;;;10.92;77.88
66742;BME280;53654;54.152;19.432;2023-03-14T03:16:08;99177.70;;;10.92;77.69
66742;BME280;53654;54.152;19.432;2023-03-14T03:18:36;99182.70;;;10.93;77.84
66742;BME280;53654;54.152;19.432;2023-03-14T03:21:05;99191.87;;;10.96;77.58
66742;BME280;53654;54.152;19.432;2023-03-14T03:23:33;99193.13;;;10.95;77.43
66742;BME280;53654;54.152;19.432;2023-03-14T03:26:01;99188.75;;;10.95;77.43
66742;BME280;53654;54.152;19.432;2023-03-14T03:28:30;99183.98;;;10.97;77.36
66742;BME280;53654;54.152;19.432;2023-03-14T03:31:06;99185.90;;;10.97;77.24
66742;BME280;53654;54.152;19.432;2023-03-14T03:33:36;99183.34;;;10.95;77.26
66742;BME280;53654;54.152;19.432;2023-03-14T03:36:05;99180.11;;;10.93;77.21
66742;BME280;53654;54.152;19.432;2023-03-14T03:38:36;99182.09;;;10.91;77.10
66742;BME280;53654;54.152;19.432;2023-03-14T03:41:06;99181.61;;;10.90;77.13
66742;BME280;53654;54.152;19.432;2023-03-14T03:43:35;99182.37;;;10.88;77.20
66742;BME280;53654;54.152;19.432;2023-03-14T03:46:06;99179.13;;;10.86;77.17
66742;BME280;53654;54.152;19.432;2023-03-14T03:48:35;99190.30;;;10.86;77.09
66742;BME280;53654;54.152;19.432;2023-03-14T03:51:05;99195.18;;;10.86;77.14
66742;BME280;53654;54.152;19.432;2023-03-14T03:53:34;99201.77;;;10.87;77.11
66742;BME280;53654;54.152;19.432;2023-03-14T03:56:06;99191.91;;;10.90;77.07
66742;BME280;53654;54.152;19.432;2023-03-14T03:58:35;99193.76;;;10.92;77.04
66742;BME280;53654;54.152;19.432;2023-03-14T04:01:03;99196.64;;;10.94;76.95
66742;BME280;53654;54.152;19.432;2023-03-14T04:03:32;99195.31;;;10.97;76.90
66742;BME280;53654;54.152;19.432;2023-03-14T04:06:07;99196.23;;;11.01;76.82
66742;BME280;53654;54.152;19.432;2023-03-14T04:08:38;99185.70;;;11.03;76.77
66742;BME280;53654;54.152;19.432;2023-03-14T04:11:09;99185.17;;;11.08;76.75
66742;BME280;53654;54.152;19.432;2023-03-14T04:14:00;99184.77;;;11.09;76.75
66742;BME280;53654;54.152;19.432;2023-03-14T04:16:29;99180.66;;;11.12;76.52
66742;BME280;53654;54.152;19.432;2023-03-14T04:19:04;99169.38;;;11.15;76.52
66742;BME280;53654;54.152;19.432;2023-03-14T04:21:32;99167.13;;;11.19;76.36
66742;BME280;53654;54.152;19.432;2023-03-14T04:24:01;99161.45;;;11.22;76.08
66742;BME280;53654;54.152;19.432;2023-03-14T04:26:32;99154.23;;;11.24;75.85
66742;BME280;53654;54.152;19.432;2023-03-14T04:29:00;99151.21;;;11.25;75.71
66742;BME280;53654;54.152;19.432;2023-03-14T04:31:28;99144.13;;;11.23;75.76
66742;BME280;53654;54.152;19.432;2023-03-14T04:33:56;99145.29;;;11.25;75.75
66742;BME280;53654;54.152;19.432;2023-03-14T04:36:31;99140.38;;;11.25;75.74
66742;BME280;53654;54.152;19.432;2023-03-14T04:39:03;99129.58;;;11.24;75.87
66742;BME280;53654;54.152;19.432;2023-03-14T04:41:34;99120.88;;;11.24;75.85
66742;BME280;53654;54.152;19.432;2023-03-14T04:44:02;99122.23;;;11.25;75.83
66742;BME280;53654;54.152;19.432;2023-03-14T04:46:30;99121.16;;;11.26;75.82
66742;BME280;53654;54.152;19.432;2023-03-14T04:48:59;99118.20;;;11.25;75.78
66742;BME280;53654;54.152;19.432;2023-03-14T04:51:28;99115.39;;;11.26;75.83
66742;BME280;53654;54.152;19.432;2023-03-14T04:53:56;99112.29;;;11.25;75.76
66742;BME280;53654;54.152;19.432;2023-03-14T04:56:26;99100.63;;;11.24;75.74
66742;BME280;53654;54.152;19.432;2023-03-14T04:58:55;99102.13;;;11.26;75.97
66742;BME280;53654;54.152;19.432;2023-03-14T05:01:23;99103.67;;;11.26;76.02
66742;BME280;53654;54.152;19.432;2023-03-14T05:04:22;99100.78;;;11.24;76.10
66742;BME280;53654;54.152;19.432;2023-03-14T05:07:12;99097.28;;;11.20;76.19
66742;BME280;53654;54.152;19.432;2023-03-14T05:10:10;99095.54;;;11.15;76.31
66742;BME280;53654;54.152;19.432;2023-03-14T05:13:13;99089.80;;;11.10;76.54
66742;BME280;53654;54.152;19.432;2023-03-14T05:16:07;99085.64;;;11.09;76.68
66742;BME280;53654;54.152;19.432;2023-03-14T05:18:55;99085.55;;;11.07;76.67
66742;BME280;53654;54.152;19.432;2023-03-14T05:21:41;99086.34;;;11.05;76.69
66742;BME280;53654;54.152;19.432;2023-03-14T05:24:12;99077.17;;;11.03;77.00
66742;BME280;53654;54.152;19.432;2023-03-14T05:26:53;99067.20;;;10.99;77.68
66742;BME280;53654;54.152;19.432;2023-03-14T05:29:47;99060.64;;;10.92;78.89
66742;BME280;53654;54.152;19.432;2023-03-14T05:32:18;99055.86;;;10.89;79.45
66742;BME280;53654;54.152;19.432;2023-03-14T05:34:55;99056.27;;;10.83;80.52
66742;BME280;53654;54.152;19.432;2023-03-14T05:37:49;99057.16;;;10.78;80.76
66742;BME280;53654;54.152;19.432;2023-03-14T05:40:35;99053.21;;;10.76;81.04
66742;BME280;53654;54.152;19.432;2023-03-14T05:43:12;99054.67;;;10.74;81.28
66742;BME280;53654;54.152;19.432;2023-03-14T05:46:07;99061.17;;;10.68;81.59
66742;BME280;53654;54.152;19.432;2023-03-14T05:49:11;99063.44;;;10.62;81.79
66742;BME280;53654;54.152;19.432;2023-03-14T05:51:49;99066.12;;;10.60;81.89
66742;BME280;53654;54.152;19.432;2023-03-14T05:54:43;99061.85;;;10.53;81.74
66742;BME280;53654;54.152;19.432;2023-03-14T05:57:17;99067.48;;;10.52;81.76
66742;BME280;53654;54.152;19.432;2023-03-14T06:00:12;99067.21;;;10.50;81.72
66742;BME280;53654;54.152;19.432;2023-03-14T06:02:44;99066.00;;;10.49;81.73
66742;BME280;53654;54.152;19.432;2023-03-14T06:05:18;99077.71;;;10.48;81.78
66742;BME280;53654;54.152;19.432;2023-03-14T06:07:47;99096.21;;;10.48;81.75
66742;BME280;53654;54.152;19.432;2023-03-14T06:10:15;99101.73;;;10.45;81.79
66742;BME280;53654;54.152;19.432;2023-03-14T06:12:43;99106.89;;;10.42;81.97
66742;BME280;53654;54.152;19.432;2023-03-14T06:15:11;99106.54;;;10.41;82.09
66742;BME280;53654;54.152;19.432;2023-03-14T06:17:40;99103.10;;;10.40;82.13
66742;BME280;53654;54.152;19.432;2023-03-14T06:20:11;99102.50;;;10.36;82.22
66742;BME280;53654;54.152;19.432;2023-03-14T06:22:39;99102.63;;;10.32;82.28
66742;BME280;53654;54.152;19.432;2023-03-14T06:25:09;99099.89;;;10.31;82.49
66742;BME280;53654;54.152;19.432;2023-03-14T06:27:37;99103.45;;;10.29;82.58
66742;BME280;53654;54.152;19.432;2023-03-14T06:30:06;99104.96;;;10.30;82.69
66742;BME280;53654;54.152;19.432;2023-03-14T06:32:34;99093.67;;;10.29;82.51
66742;BME280;53654;54.152;19.432;2023-03-14T06:35:06;99097.48;;;10.30;82.30
66742;BME280;53654;54.152;19.432;2023-03-14T06:37:37;99108.52;;;10.34;82.31
66742;BME280;53654;54.152;19.432;2023-03-14T06:40:06;99113.38;;;10.34;81.96
66742;BME280;53654;54.152;19.432;2023-03-14T06:42:58;99115.05;;;10.31;81.81
66742;BME280;53654;54.152;19.432;2023-03-14T06:45:27;99118.70;;;10.31;81.64
66742;BME280;53654;54.152;19.432;2023-03-14T06:47:56;99117.69;;;10.36;81.64
66742;BME280;53654;54.152;19.432;2023-03-14T06:50:27;99110.11;;;10.39;81.23
66742;BME280;53654;54.152;19.432;2023-03-14T06:52:57;99107.41;;;10.41;81.05
66742;BME280;53654;54.152;19.432;2023-03-14T06:55:26;99106.54;;;10.41;80.83
66742;BME280;53654;54.152;19.432;2023-03-14T06:57:54;99105.64;;;10.43;80.66
66742;BME280;53654;54.152;19.432;2023-03-14T07:00:22;99104.95;;;10.42;80.71
66742;BME280;53654;54.152;19.432;2023-03-14T07:02:53;99100.98;;;10.41;80.76
66742;BME280;53654;54.152;19.432;2023-03-14T07:05:28;99094.19;;;10.41;80.85
66742;BME280;53654;54.152;19.432;2023-03-14T07:07:56;99099.88;;;10.43;81.02
66742;BME280;53654;54.152;19.432;2023-03-14T07:10:25;99100.73;;;10.43;81.14
66742;BME280;53654;54.152;19.432;2023-03-14T07:12:53;99096.98;;;10.46;81.26
66742;BME280;53654;54.152;19.432;2023-03-14T07:15:23;99097.02;;;10.50;81.52
66742;BME280;53654;54.152;19.432;2023-03-14T07:17:53;99098.08;;;10.55;81.58
66742;BME280;53654;54.152;19.432;2023-03-14T07:20:22;99107.03;;;10.63;81.75
66742;BME280;53654;54.152;19.432;2023-03-14T07:22:51;99114.41;;;10.72;81.83
66742;BME280;53654;54.152;19.432;2023-03-14T07:25:25;99111.52;;;10.79;81.85
66742;BME280;53654;54.152;19.432;2023-03-14T07:27:53;99110.36;;;10.87;81.76
66742;BME280;53654;54.152;19.432;2023-03-14T07:30:22;99114.55;;;10.92;81.41
66742;BME280;53654;54.152;19.432;2023-03-14T07:32:50;99108.45;;;10.96;81.43
66742;BME280;53654;54.152;19.432;2023-03-14T07:35:22;99113.30;;;11.02;81.19
66742;BME280;53654;54.152;19.432;2023-03-14T07:37:50;99111.99;;;11.05;81.06
66742;BME280;53654;54.152;19.432;2023-03-14T07:40:20;99114.08;;;11.10;81.04
66742;BME280;53654;54.152;19.432;2023-03-14T07:42:48;99111.73;;;11.16;80.94
66742;BME280;53654;54.152;19.432;2023-03-14T07:45:25;99103.66;;;11.22;80.62
66742;BME280;53654;54.152;19.432;2023-03-14T07:47:55;99101.24;;;11.26;80.70
66742;BME280;53654;54.152;19.432;2023-03-14T07:50:26;99099.95;;;11.38;80.43
66742;BME280;53654;54.152;19.432;2023-03-14T07:52:54;99097.55;;;11.46;80.03
66742;BME280;53654;54.152;19.432;2023-03-14T07:55:22;99093.60;;;11.53;79.70
66742;BME280;53654;54.152;19.432;2023-03-14T07:57:50;99087.40;;;11.60;79.34
66742;BME280;53654;54.152;19.432;2023-03-14T08:00:19;99085.00;;;11.67;79.13
66742;BME280;53654;54.152;19.432;2023-03-14T08:02:48;99069.81;;;11.76;78.49
66742;BME280;53654;54.152;19.432;2023-03-14T08:05:16;99059.27;;;11.82;78.16
66742;BME280;53654;54.152;19.432;2023-03-14T08:07:45;99051.33;;;11.93;78.09
66742;BME280;53654;54.152;19.432;2023-03-14T08:10:13;99045.13;;;12.04;77.44
66742;BME280;53654;54.152;19.432;2023-03-14T08:12:58;99045.41;;;12.14;77.14
66742;BME280;53654;54.152;19.432;2023-03-14T08:15:28;99054.39;;;12.20;76.37
66742;BME280;53654;54.152;19.432;2023-03-14T08:17:57;99065.32;;;12.31;75.98
66742;BME280;53654;54.152;19.432;2023-03-14T08:20:28;99069.23;;;12.37;75.44
66742;BME280;53654;54.152;19.432;2023-03-14T08:22:58;99068.27;;;12.43;75.11
66742;BME280;53654;54.152;19.432;2023-03-14T08:25:27;99063.15;;;12.52;75.01
66742;BME280;53654;54.152;19.432;2023-03-14T08:27:56;99067.97;;;12.63;74.88
66742;BME280;53654;54.152;19.432;2023-03-14T08:30:24;99067.23;;;12.72;74.29
66742;BME280;53654;54.152;19.432;2023-03-14T08:32:52;99070.62;;;12.78;73.71
66742;BME280;53654;54.152;19.432;2023-03-14T08:35:20;99072.79;;;12.84;73.36
66742;BME280;53654;54.152;19.432;2023-03-14T08:37:48;99068.20;;;12.89;73.06
66742;BME280;53654;54.152;19.432;2023-03-14T08:40:17;99065.04;;;12.89;72.70
66742;BME280;53654;54.152;19.432;2023-03-14T08:42:45;99064.14;;;12.86;72.31
66742;BME280;53654;54.152;19.432;2023-03-14T08:45:15;99063.45;;;12.82;72.27
66742;BME280;53654;54.152;19.432;2023-03-14T08:47:44;99048.58;;;12.78;72.53
66742;BME280;53654;54.152;19.432;2023-03-14T08:50:13;99038.21;;;12.75;72.29
66742;BME280;53654;54.152;19.432;2023-03-14T08:52:43;99043.42;;;12.72;72.36
66742;BME280;53654;54.152;19.432;2023-03-14T08:55:11;99042.16;;;12.65;72.05
66742;BME280;53654;54.152;19.432;2023-03-14T08:57:39;99039.52;;;12.57;72.37
66742;BME280;53654;54.152;19.432;2023-03-14T09:00:09;99040.48;;;12.55;72.43
66742;BME280;53654;54.152;19.432;2023-03-14T09:02:40;99031.56;;;12.51;72.38
66742;BME280;53654;54.152;19.432;2023-03-14T09:05:08;99025.10;;;12.47;72.49
66742;BME280;53654;54.152;19.432;2023-03-14T09:07:38;99018.88;;;12.41;72.47
66742;BME280;53654;54.152;19.432;2023-03-14T09:10:08;99024.34;;;12.36;72.52
66742;BME280;53654;54.152;19.432;2023-03-14T09:12:37;99014.26;;;12.31;72.40
66742;BME280;53654;54.152;19.432;2023-03-14T09:15:06;99004.58;;;12.28;72.80
66742;BME280;53654;54.152;19.432;2023-03-14T09:17:34;99003.92;;;12.27;72.83
66742;BME280;53654;54.152;19.432;2023-03-14T09:20:03;98999.04;;;12.23;72.85
66742;BME280;53654;54.152;19.432;2023-03-14T09:22:34;98995.60;;;12.22;72.81
66742;BME280;53654;54.152;19.432;2023-03-14T09:25:04;98995.05;;;12.22;72.72
66742;BME280;53654;54.152;19.432;2023-03-14T09:27:32;98993.98;;;12.23;72.79
66742;BME280;53654;54.152;19.432;2023-03-14T09:30:00;99005.55;;;12.30;72.91
66742;BME280;53654;54.152;19.432;2023-03-14T09:32:30;98997.98;;;12.39;72.92
66742;BME280;53654;54.152;19.432;2023-03-14T09:35:00;98992.14;;;12.44;72.50
66742;BME280;53654;54.152;19.432;2023-03-14T09:37:28;98986.90;;;12.48;72.23
66742;BME280;53654;54.152;19.432;2023-03-14T09:39:56;98989.11;;;12.54;72.25
66742;BME280;53654;54.152;19.432;2023-03-14T09:42:26;98988.73;;;12.63;72.23
66742;BME280;53654;54.152;19.432;2023-03-14T09:45:07;98980.79;;;12.72;71.90
66742;BME280;53654;54.152;19.432;2023-03-14T09:47:40;98982.19;;;12.83;71.69
66742;BME280;53654;54.152;19.432;2023-03-14T09:50:26;98982.64;;;12.92;71.30
66742;BME280;53654;54.152;19.432;2023-03-14T09:53:03;98983.70;;;13.00;71.01
66742;BME280;53654;54.152;19.432;2023-03-14T09:55:32;98993.86;;;13.07;70.80
66742;BME280;53654;54.152;19.432;2023-03-14T09:58:09;99015.14;;;13.12;70.83
66742;BME280;53654;54.152;19.432;2023-03-14T10:00:38;99024.71;;;13.18;70.36
66742;BME280;53654;54.152;19.432;2023-03-14T10:03:21;99034.84;;;13.23;69.98
66742;BME280;53654;54.152;19.432;2023-03-14T10:05:49;99042.89;;;13.23;70.04
66742;BME280;53654;54.152;19.432;2023-03-14T10:08:18;99052.59;;;13.25;69.86
66742;BME280;53654;54.152;19.432;2023-03-14T10:10:46;99051.19;;;13.26;69.48
66742;BME280;53654;54.152;19.432;2023-03-14T10:15:59;99037.86;;;13.21;69.30
66742;BME280;53654;54.152;19.432;2023-03-14T10:18:29;99041.52;;;13.18;69.21
66742;BME280;53654;54.152;19.432;2023-03-14T10:23:33;99028.13;;;13.12;69.41
66742;BME280;53654;54.152;19.432;2023-03-14T10:26:12;99014.86;;;13.11;69.44
66742;BME280;53654;54.152;19.432;2023-03-14T10:28:46;99011.74;;;13.07;69.52
66742;BME280;53654;54.152;19.432;2023-03-14T10:31:15;99006.85;;;13.03;69.58
66742;BME280;53654;54.152;19.432;2023-03-14T10:33:58;99017.48;;;13.00;69.79
66742;BME280;53654;54.152;19.432;2023-03-14T10:36:32;99029.58;;;12.96;70.00
66742;BME280;53654;54.152;19.432;2023-03-14T10:41:52;99036.92;;;12.92;70.36
66742;BME280;53654;54.152;19.432;2023-03-14T10:44:23;99029.14;;;12.94;70.07
66742;BME280;53654;54.152;19.432;2023-03-14T10:46:59;99027.89;;;12.90;70.01
66742;BME280;53654;54.152;19.432;2023-03-14T10:49:33;99033.19;;;12.89;70.05
66742;BME280;53654;54.152;19.432;2023-03-14T10:52:13;99030.89;;;12.86;70.25
66742;BME280;53654;54.152;19.432;2023-03-14T10:54:46;99028.13;;;12.85;70.49
66742;BME280;53654;54.152;19.432;2023-03-14T10:57:14;99031.91;;;12.87;70.69
66742;BME280;53654;54.152;19.432;2023-03-14T10:59:43;99034.74;;;12.89;70.85
66742;BME280;53654;54.152;19.432;2023-03-14T11:05:02;99027.52;;;12.95;70.85
66742;BME280;53654;54.152;19.432;2023-03-14T11:07:41;99027.05;;;12.97;70.77
66742;BME280;53654;54.152;19.432;2023-03-14T11:29:52;99003.91;;;13.29;70.65
66742;BME280;53654;54.152;19.432;2023-03-14T11:31:55;99010.86;;;13.34;70.96
66742;BME280;53654;54.152;19.432;2023-03-14T11:34:29;99017.43;;;13.39;70.81
66742;BME280;53654;54.152;19.432;2023-03-14T11:37:07;99014.33;;;13.46;70.55
66742;BME280;53654;54.152;19.432;2023-03-14T11:39:44;99013.02;;;13.54;70.56
66742;BME280;53654;54.152;19.432;2023-03-14T11:42:16;99002.05;;;13.64;70.26
66742;BME280;53654;54.152;19.432;2023-03-14T11:44:49;98995.27;;;13.73;70.02
66742;BME280;53654;54.152;19.432;2023-03-14T11:47:24;98992.06;;;13.81;69.92
66742;BME280;53654;54.152;19.432;2023-03-14T11:50:34;98990.78;;;13.90;69.56
66742;BME280;53654;54.152;19.432;2023-03-14T11:55:30;98997.11;;;14.00;69.55
66742;BME280;53654;54.152;19.432;2023-03-14T11:58:11;98999.32;;;14.05;69.26
66742;BME280;53654;54.152;19.432;2023-03-14T12:00:43;98989.89;;;14.07;69.27
66742;BME280;53654;54.152;19.432;2023-03-14T12:06:17;99001.15;;;14.13;69.05
66742;BME280;53654;54.152;19.432;2023-03-14T12:08:52;98995.12;;;14.15;69.27
66742;BME280;53654;54.152;19.432;2023-03-14T12:13:58;98985.92;;;14.20;69.06
66742;BME280;53654;54.152;19.432;2023-03-14T12:16:38;98989.15;;;14.25;68.96
66742;BME280;53654;54.152;19.432;2023-03-14T12:19:35;98988.73;;;14.30;68.95
66742;BME280;53654;54.152;19.432;2023-03-14T12:24:51;98989.21;;;14.31;68.49
66742;BME280;53654;54.152;19.432;2023-03-14T12:38:23;98990.95;;;14.18;68.48
66742;BME280;53654;54.152;19.432;2023-03-14T12:43:30;98993.36;;;14.12;68.52
66742;BME280;53654;54.152;19.432;2023-03-14T12:46:15;98990.95;;;14.11;68.44
66742;BME280;53654;54.152;19.432;2023-03-14T12:48:50;98989.34;;;14.08;68.58
66742;BME280;53654;54.152;19.432;2023-03-14T12:57:09;98993.91;;;14.08;68.48
66742;BME280;53654;54.152;19.432;2023-03-14T12:59:50;98993.90;;;14.08;68.73
66742;BME280;53654;54.152;19.432;2023-03-14T13:02:28;98985.22;;;14.10;68.57
66742;BME280;53654;54.152;19.432;2023-03-14T13:05:30;98985.52;;;14.14;68.14
66742;BME280;53654;54.152;19.432;2023-03-14T13:10:30;98989.02;;;14.25;67.83
66742;BME280;53654;54.152;19.432;2023-03-14T13:13:22;98992.63;;;14.29;67.70
66742;BME280;53654;54.152;19.432;2023-03-14T13:15:58;98998.49;;;14.35;67.63
66742;BME280;53654;54.152;19.432;2023-03-14T13:21:16;98994.96;;;14.46;66.96
66742;BME280;53654;54.152;19.432;2023-03-14T13:26:42;98992.27;;;14.54;66.46
66742;BME280;53654;54.152;19.432;2023-03-14T13:29:19;98984.91;;;14.57;66.02
66742;BME280;53654;54.152;19.432;2023-03-14T13:31:51;98988.25;;;14.60;66.01
66742;BME280;53654;54.152;19.432;2023-03-14T13:34:20;98991.36;;;14.64;65.61
66742;BME280;53654;54.152;19.432;2023-03-14T13:36:51;98992.23;;;14.71;65.23
66742;BME280;53654;54.152;19.432;2023-03-14T13:39:24;98995.55;;;14.78;64.93
66742;BME280;53654;54.152;19.432;2023-03-14T13:41:57;98991.03;;;14.80;64.48
66742;BME280;53654;54.152;19.432;2023-03-14T13:44:33;98995.04;;;14.84;64.30
66742;BME280;53654;54.152;19.432;2023-03-14T13:47:03;98988.48;;;14.89;64.05
66742;BME280;53654;54.152;19.432;2023-03-14T13:49:33;98993.30;;;14.91;63.61
66742;BME280;53654;54.152;19.432;2023-03-14T13:52:31;98989.81;;;14.93;63.31
66742;BME280;53654;54.152;19.432;2023-03-14T13:55:01;98983.88;;;14.89;63.12
66742;BME280;53654;54.152;19.432;2023-03-14T13:57:52;98977.29;;;14.91;63.38
66742;BME280;53654;54.152;19.432;2023-03-14T14:00:26;98976.25;;;14.88;63.13
66742;BME280;53654;54.152;19.432;2023-03-14T14:02:56;98976.08;;;14.84;63.01
66742;BME280;53654;54.152;19.432;2023-03-14T14:05:27;98976.20;;;14.82;63.31
66742;BME280;53654;54.152;19.432;2023-03-14T14:07:56;98974.52;;;14.80;63.24
66742;BME280;53654;54.152;19.432;2023-03-14T14:10:26;98977.92;;;14.79;62.90
66742;BME280;53654;54.152;19.432;2023-03-14T14:13:03;98980.21;;;14.79;63.13
66742;BME280;53654;54.152;19.432;2023-03-14T14:15:39;98982.42;;;14.80;62.92
66742;BME280;53654;54.152;19.432;2023-03-14T14:18:10;98976.20;;;14.82;63.06
66742;BME280;53654;54.152;19.432;2023-03-14T14:20:45;98973.23;;;14.85;63.03
66742;BME280;53654;54.152;19.432;2023-03-14T14:23:20;98969.38;;;14.88;63.21
66742;BME280;53654;54.152;19.432;2023-03-14T14:25:53;98967.95;;;14.88;62.95
66742;BME280;53654;54.152;19.432;2023-03-14T14:34:17;98969.28;;;14.99;63.23
66742;BME280;53654;54.152;19.432;2023-03-14T14:36:39;98968.30;;;14.98;63.16
66742;BME280;53654;54.152;19.432;2023-03-14T14:39:17;98967.55;;;14.99;62.53
66742;BME280;53654;54.152;19.432;2023-03-14T14:41:48;98962.80;;;14.96;61.80
66742;BME280;53654;54.152;19.432;2023-03-14T14:44:37;98959.65;;;14.89;61.66
66742;BME280;53654;54.152;19.432;2023-03-14T14:47:05;98955.12;;;14.82;61.76
66742;BME280;53654;54.152;19.432;2023-03-14T14:49:34;98960.20;;;14.82;62.53